• Join FlightAware (Why Join?)
  • Login
  • US Flag 
Rudolph Flight #1: Arrived! 
07:57PM EST


 

Airport Tracker/Info


-or-


 

Live Flight TrackerFlight Track Log ✈ AFL150 ✈ 06-Dec-2013 ✈ UUEE / SVO - MUHA / HAV

Flight Track Log - Related Links

Times and Time Zones

All times are in EST time to prevent confusion due to time zone crossing. See the AFL150 flight status page for this flight to view local times or setup timezone preferences in your user account.

Time Position Orientation Groundspeed Altitude Reporting Facility
EST Latitude Longitude Course Direction KTS MPH feet Rate Location/Type
07:42AM 56.5243 4.3409 265° West 466 536 36,000  Level FlightAware UK
07:43AM 56.5183 4.2276 265° West 466 536 36,000  Level FlightAware UK
07:43AM 56.5091 4.0574 265° West 462 532 36,000  Level FlightAware UK
07:44AM 56.5016 3.9465 263° West 462 532 36,000  Level FlightAware UK
07:45AM 56.4924 3.8176 263° West 460 529 36,000  Level FlightAware UK
07:46AM 56.4814 3.6712 262° West 464 534 36,000  Level FlightAware UK
07:47AM 56.4613 3.3973 263° West 464 534 36,000  Level FlightAware UK
07:48AM 56.4546 3.3063 262° West 464 534 36,000  Level FlightAware UK
07:48AM 56.4476 3.2156 262° West 466 536 36,000  Level FlightAware UK
07:49AM 56.4406 3.1254 262° West 464 534 36,000  Level FlightAware UK
07:49AM 56.4322 3.0186 262° West 462 532 36,000  Level FlightAware UK
07:50AM 56.4239 2.9135 262° West 464 534 36,000  Level FlightAware UK
07:50AM 56.4156 2.8097 262° West 462 532 36,000  Level FlightAware UK
07:51AM 56.4088 2.7225 262° West 464 534 36,000  Level FlightAware UK
07:51AM 56.4017 2.6357 262° West 464 534 36,000  Level FlightAware UK
07:52AM 56.3945 2.5496 262° West 464 534 36,000  Level FlightAware UK
07:52AM 56.3862 2.4481 262° West 462 532 36,000  Level FlightAware UK
07:53AM 56.3751 2.3153 261° West 460 529 36,000  Level FlightAware UK
07:54AM 56.3666 2.2146 261° West 460 529 36,000  Level FlightAware UK
07:55AM 56.3566 2.0975 261° West 460 529 36,000  Level FlightAware UK
07:55AM 56.3493 2.0138 261° West 462 532 36,000  Level FlightAware UK
07:56AM 56.3318 1.8149 261° West 460 529 36,000  Level FlightAware UK
07:57AM 56.3245 1.7327 261° West 460 529 36,000  Level FlightAware UK
07:57AM 56.3145 1.6190 261° West 458 527 36,000  Level FlightAware UK
07:58AM 56.3072 1.5369 261° West 458 527 36,000  Level FlightAware UK
07:59AM 56.2951 1.4053 261° West 460 529 36,000  Level FlightAware UK
08:00AM 56.2754 1.1912 261° West 458 527 36,000  Level FlightAware UK
08:01AM 56.2676 1.1079 260° West 460 529 36,000  Level FlightAware UK
08:01AM 56.2596 1.0239 260° West 460 529 36,000  Level FlightAware UK
08:02AM 56.2500 0.9226 260° West 460 529 36,000  Level FlightAware UK
08:03AM 56.2353 0.7710 260° West 462 532 36,000  Level FlightAware UK
08:03AM 56.2255 0.6693 260° West 462 532 36,000  Level FlightAware UK
08:04AM 56.2035 0.4458 260° West 462 532 36,000  Level FlightAware UK
08:05AM 56.1949 0.3594 260° West 462 532 36,000  Level FlightAware UK
08:06AM 56.1825 0.2383 260° West 464 534 36,000  Level FlightAware UK
08:06AM 56.1718 0.1352 260° West 462 532 36,000  Level FlightAware UK
08:07AM 56.1594 0.0148 260° West 460 529 36,000  Level FlightAware UK
08:08AM 56.1470 -0.1045 259° West 458 527 36,000  Level FlightAware UK
08:08AM 56.1346 -0.2244 260° West 460 529 36,000  Level FlightAware UK
08:09AM 56.1180 -0.3796 259° West 462 532 36,000  Level FlightAware UK
08:11AM 56.0914 -0.6256 259° West 464 534 36,000  Level FlightAware UK
08:11AM 56.0817 -0.7138 259° West 462 532 36,000  Level FlightAware UK
08:12AM 56.0682 -0.8369 259° West 462 532 36,000  Level FlightAware UK
08:12AM 56.0563 -0.9428 259° West 460 529 36,000  Level FlightAware UK
08:13AM 56.0443 -1.0489 259° West 460 529 36,000  Level FlightAware UK
08:14AM 56.0323 -1.1540 259° West 460 529 36,000  Level FlightAware UK
08:14AM 56.0183 -1.2770 259° West 460 529 36,000  Level FlightAware UK
08:16AM 55.9811 -1.5964 258° West 460 529 36,000  Level FlightAware UK
08:17AM 55.9644 -1.7382 258° West 460 529 36,000  Level FlightAware UK
08:17AM 55.9516 -1.8450 258° West 460 529 36,000  Level FlightAware UK
08:18AM 55.9345 -1.9873 258° West 462 532 36,000  Level FlightAware UK
08:19AM 55.9213 -2.0955 258° West 462 532 36,000  Level FlightAware UK
08:20AM 55.9034 -2.2403 258° West 462 532 36,000  Level FlightAware UK
08:20AM 55.8922 -2.3308 258° West 462 532 36,000  Level FlightAware UK
08:21AM 55.8651 -2.5478 258° West 462 532 36,000  Level FlightAware UK
08:22AM 55.8446 -2.7105 257° West 464 534 36,000  Level FlightAware UK
08:23AM 55.8236 -2.8734 257° West 462 532 36,000  Level FlightAware UK
08:24AM 55.8119 -2.9633 257° West 462 532 36,000  Level FlightAware UK
08:24AM 55.7980 -3.0703 257° West 462 532 36,000  Level FlightAware UK
08:25AM 55.7791 -3.2133 257° West 460 529 36,000  Level FlightAware UK
08:26AM 55.7602 -3.3559 257° West 460 529 36,000  Level FlightAware UK
08:26AM 55.7484 -3.4452 257° West 460 529 36,000  Level FlightAware UK
08:27AM 55.7292 -3.5878 257° West 460 529 36,000  Level FlightAware UK
08:28AM 55.7146 -3.6953 256° West 460 529 36,000  Level FlightAware UK
08:28AM 55.7024 -3.7849 256° West 458 527 36,000  Level FlightAware UK
08:29AM 55.6899 -3.8748 256° West 458 527 36,000  Level FlightAware UK
08:29AM 55.6774 -3.9649 256° West 462 532 36,000  Level FlightAware UK
08:30AM 55.6648 -4.0555 256° West 462 532 36,000  Level FlightAware UK
08:31AM 55.6393 -4.2365 256° West 462 532 36,000  Level FlightAware UK
08:32AM 55.6189 -4.3817 256° West 462 532 36,000  Level FlightAware UK
08:33AM 55.5902 -4.5802 256° West 460 529 36,000  Level FlightAware UK
08:33AM 55.5746 -4.6878 256° West 460 529 36,000  Level FlightAware UK
08:34AM 55.5589 -4.7956 256° West 458 527 36,000  Level FlightAware UK
08:34AM 55.5429 -4.9036 255° West 458 527 36,000  Level FlightAware UK
08:35AM 55.5268 -5.0124 255° West 458 527 36,000  Level FlightAware UK
08:36AM 55.5006 -5.0976 242° Southwest 458 527 36,000  Level FlightAware UK
08:36AM 55.4572 -5.1668 222° Southwest 460 529 36,000  Level FlightAware UK
08:37AM 55.4022 -5.2452 219° Southwest 464 534 36,000  Level FlightAware UK
08:37AM 55.3561 -5.3108 219° Southwest 460 529 36,000  Level FlightAware UK
08:38AM 55.2916 -5.4019 219° Southwest 460 529 36,000  Level FlightAware UK
08:38AM 55.2455 -5.4669 219° Southwest 462 532 36,000  Level FlightAware UK
08:39AM 55.1994 -5.5318 219° Southwest 460 529 36,000  Level FlightAware UK
08:39AM 55.1533 -5.5965 219° Southwest 460 529 36,000  Level FlightAware UK
08:40AM 55.0980 -5.6742 219° Southwest 458 527 36,000  Level FlightAware UK
08:40AM 55.0517 -5.7387 219° Southwest 460 529 36,000  Level FlightAware UK
08:41AM 55.0052 -5.8031 219° Southwest 462 532 36,000  Level FlightAware UK
08:41AM 54.9587 -5.8676 219° Southwest 460 529 36,000  Level FlightAware UK
08:42AM 54.8841 -5.9706 218° Southwest 458 527 36,000  Level FlightAware UK
08:43AM 54.8375 -6.0349 218° Southwest 458 527 36,000  Level FlightAware UK
08:43AM 54.7908 -6.0997 219° Southwest 460 529 36,000  Level FlightAware UK
08:44AM 54.7346 -6.1774 219° Southwest 462 532 36,000  Level FlightAware UK
08:44AM 54.6869 -6.2414 218° Southwest 462 532 36,000  Level FlightAware UK
08:45AM 54.6394 -6.3044 218° Southwest 460 529 36,000  Level FlightAware UK
08:45AM 54.5924 -6.3680 218° Southwest 462 532 36,000  Level FlightAware UK
08:46AM 54.5263 -6.4578 218° Southwest 462 532 36,000  Level FlightAware UK
08:47AM 54.4791 -6.5214 218° Southwest 460 529 36,000  Level FlightAware UK
08:47AM 54.4318 -6.5847 218° Southwest 462 532 36,000  Level FlightAware UK
08:48AM 54.3884 -6.6529 222° Southwest 458 527 36,000  Level FlightAware UK
08:48AM 54.3480 -6.7702 239° Southwest 456 525 36,000  Level FlightAware UK
08:49AM 54.3189 -6.8540 239° Southwest 458 527 36,000  Level FlightAware UK
08:49AM 54.2898 -6.9381 239° Southwest 456 525 36,000  Level FlightAware UK
08:50AM 54.2607 -7.0224 239° Southwest 460 529 36,000  Level FlightAware UK
08:50AM 54.2314 -7.1070 239° Southwest 462 532 36,000  Level FlightAware UK
08:51AM 54.2019 -7.1916 239° Southwest 462 532 36,000  Level FlightAware UK
08:51AM 54.1725 -7.2762 239° Southwest 462 532 36,000  Level FlightAware UK
08:52AM 54.1370 -7.3768 239° Southwest 462 532 36,000  Level FlightAware UK
08:52AM 54.1071 -7.4608 239° Southwest 462 532 36,000  Level FlightAware UK
08:53AM 54.0774 -7.5449 239° Southwest 460 529 36,000  Level FlightAware UK
08:53AM 54.0475 -7.6290 239° Southwest 460 529 36,000  Level FlightAware UK
08:54AM 54.0176 -7.7128 239° Southwest 460 529 36,000  Level FlightAware UK
08:54AM 53.9878 -7.7969 239° Southwest 462 532 36,000  Level FlightAware UK
08:55AM 53.9576 -7.8805 239° Southwest 460 529 36,000  Level FlightAware UK
08:55AM 53.9275 -7.9642 239° Southwest 458 527 36,000  Level FlightAware UK
08:56AM 53.8973 -8.0478 239° Southwest 458 527 36,000  Level FlightAware UK
08:56AM 53.8670 -8.1313 238° Southwest 458 527 36,000  Level FlightAware UK
08:57AM 53.8367 -8.2149 238° Southwest 460 529 36,000 -420 Level FlightAware UK
08:57AM 53.8062 -8.2988 238° Southwest 462 532 35,600 -900 Descending FlightAware UK
08:58AM 53.7752 -8.3829 238° Southwest 464 534 35,100 -600 Descending FlightAware UK
08:58AM 53.7442 -8.4671 238° Southwest 462 532 35,000 -120 Descending FlightAware UK
08:59AM 53.7076 -8.5665 238° Southwest 460 529 35,000  Level FlightAware UK
08:59AM 53.6769 -8.6495 238° Southwest 462 532 35,000  Level FlightAware UK
09:00AM 53.6461 -8.7328 238° Southwest 462 532 35,000  Level FlightAware UK
09:00AM 53.6151 -8.8158 238° Southwest 460 529 35,000  Level FlightAware UK
09:01AM 53.5841 -8.8987 238° Southwest 462 532 35,000  Level FlightAware UK
09:01AM 53.5532 -8.9814 238° Southwest 462 532 35,000 -60 Level FlightAware UK
09:03AM 53.5569 -9.2778 271° West  Level Estimated
09:10AM 53.5636 -11.2234 271° West  Level Estimated
09:11AM 53.5620 -11.5014 270° West  Level Estimated
09:12AM 53.5597 -11.7793 269° West  Level Estimated
09:13AM 53.5568 -12.0572 269° West  Level Estimated
09:14AM 53.5532 -12.3351 269° West  Level Estimated
09:15AM 53.5490 -12.6129 269° West  Level Estimated
09:16AM 53.5442 -12.8906 268° West  Level Estimated
09:17AM 53.5387 -13.1683 268° West  Level Estimated
09:18AM 53.5325 -13.4459 268° West  Level Estimated
09:19AM 53.5258 -13.7234 268° West  Level Estimated
09:20AM 53.5183 -14.0008 268° West  Level Estimated
09:21AM 53.5103 -14.2781 267° West  Level Estimated
09:22AM 53.5016 -14.5553 267° West  Level Estimated
09:23AM 53.4922 -14.8324 267° West  Level Estimated
09:24AM 53.4823 -15.1094 267° West  Level Estimated
09:25AM 53.4716 -15.3862 266° West  Level Estimated
09:26AM 53.4604 -15.6629 266° West  Level Estimated
09:27AM 53.4485 -15.9394 266° West  Level Estimated
09:28AM 53.4359 -16.2158 266° West  Level Estimated
09:29AM 53.4228 -16.4920 266° West  Level Estimated
09:30AM 53.4090 -16.7681 265° West  Level Estimated
09:31AM 53.3945 -17.0439 265° West  Level Estimated
09:32AM 53.3794 -17.3196 265° West  Level Estimated
09:33AM 53.3637 -17.5950 265° West  Level Estimated
09:34AM 53.3473 -17.8703 264° West  Level Estimated
09:35AM 53.3303 -18.1453 264° West  Level Estimated
09:36AM 53.3127 -18.4201 264° West  Level Estimated
09:37AM 53.2945 -18.6947 264° West  Level Estimated
09:38AM 53.2756 -18.9690 264° West  Level Estimated
09:39AM 53.2561 -19.2432 263° West  Level Estimated
09:40AM 53.2360 -19.5170 263° West  Level Estimated
09:41AM 53.2152 -19.7906 263° West  Level Estimated
09:42AM 53.1938 -20.0639 263° West  Level Estimated
09:43AM 53.1718 -20.3369 262° West  Level Estimated
09:44AM 53.1492 -20.6097 262° West  Level Estimated
09:45AM 53.1259 -20.8821 262° West  Level Estimated
09:46AM 53.1020 -21.1543 262° West  Level Estimated
09:47AM 53.0775 -21.4261 262° West  Level Estimated
09:48AM 53.0524 -21.6977 261° West  Level Estimated
09:49AM 53.0266 -21.9689 261° West  Level Estimated
09:50AM 53.0003 -22.2398 261° West  Level Estimated
09:51AM 52.9733 -22.5104 261° West  Level Estimated
09:52AM 52.9458 -22.7806 260° West  Level Estimated
09:53AM 52.9176 -23.0505 260° West  Level Estimated
09:54AM 52.8888 -23.3200 260° West  Level Estimated
09:55AM 52.8593 -23.5891 260° West  Level Estimated
09:56AM 52.8293 -23.8579 260° West  Level Estimated
09:57AM 52.7987 -24.1263 259° West  Level Estimated
09:58AM 52.7675 -24.3944 259° West  Level Estimated
09:59AM 52.7356 -24.6620 259° West  Level Estimated
10:00AM 52.7032 -24.9293 259° West  Level Estimated
10:01AM 52.6702 -25.1961 259° West  Level Estimated
10:02AM 52.6365 -25.4625 258° West  Level Estimated
10:03AM 52.6023 -25.7286 258° West  Level Estimated
10:04AM 52.5675 -25.9942 258° West  Level Estimated
10:05AM 52.5320 -26.2594 258° West  Level Estimated
10:06AM 52.4960 -26.5241 258° West  Level Estimated
10:07AM 52.4594 -26.7884 257° West  Level Estimated
10:08AM 52.4222 -27.0523 257° West  Level Estimated
10:09AM 52.3844 -27.3157 257° West  Level Estimated
10:10AM 52.3461 -27.5787 257° West  Level Estimated
10:11AM 52.3072 -27.8412 256° West  Level Estimated
10:11AM 49.0000 -20.0000 243° Southwest 458 527 31,000  Level ETMS Enhanced Traffic Management System
10:12AM 52.2676 -28.1033 256° West  Level Estimated
10:13AM 52.2275 -28.3648 256° West  Level Estimated
10:14AM 52.1869 -28.6259 256° West  Level Estimated
10:15AM 52.1456 -28.8866 256° West  Level Estimated
10:16AM 52.1038 -29.1467 255° West  Level Estimated
10:17AM 48.6524 -21.0339 243° Southwest 458 527 31,000  Level FlightAware Transoceanic
10:18AM 48.5936 -21.2048 242° Southwest 458 527 31,000  Level FlightAware Transoceanic
10:19AM 48.5345 -21.3753 242° Southwest 458 527 31,000  Level FlightAware Transoceanic
10:20AM 48.4752 -21.5454 242° Southwest 458 527 31,000  Level FlightAware Transoceanic
10:21AM 48.4157 -21.7152 242° Southwest 458 527 31,000  Level FlightAware Transoceanic
10:22AM 48.3558 -21.8845 242° Southwest 458 527 31,000  Level FlightAware Transoceanic
10:23AM 48.2958 -22.0534 242° Southwest 458 527 31,000  Level FlightAware Transoceanic
10:24AM 48.2355 -22.2219 242° Southwest 458 527 31,000  Level FlightAware Transoceanic
10:25AM 48.1749 -22.3901 242° Southwest 458 527 31,000  Level FlightAware Transoceanic
10:26AM 48.1141 -22.5578 241° Southwest 458 527 31,000  Level FlightAware Transoceanic
10:27AM 48.0530 -22.7251 241° Southwest 458 527 31,000  Level FlightAware Transoceanic
10:28AM 47.9917 -22.8921 241° Southwest 458 527 31,000  Level FlightAware Transoceanic
10:29AM 47.9302 -23.0586 241° Southwest 458 527 31,000  Level FlightAware Transoceanic
10:30AM 47.8684 -23.2248 241° Southwest 458 527 31,000  Level FlightAware Transoceanic
10:31AM 47.8064 -23.3905 241° Southwest 458 527 31,000  Level FlightAware Transoceanic
10:32AM 47.7442 -23.5559 241° Southwest 458 527 31,000  Level FlightAware Transoceanic
10:33AM 47.6817 -23.7208 241° Southwest 458 527 31,000  Level FlightAware Transoceanic
10:34AM 47.6189 -23.8854 240° Southwest 458 527 31,000  Level FlightAware Transoceanic
10:35AM 47.5560 -24.0496 240° Southwest 458 527 31,000  Level FlightAware Transoceanic
10:36AM 47.4928 -24.2134 240° Southwest 458 527 31,000  Level FlightAware Transoceanic
10:37AM 47.4294 -24.3767 240° Southwest 458 527 31,000  Level FlightAware Transoceanic
10:38AM 47.3657 -24.5397 240° Southwest 458 527 31,000  Level FlightAware Transoceanic
10:39AM 47.3018 -24.7023 240° Southwest 458 527 31,000  Level FlightAware Transoceanic
10:40AM 47.2377 -24.8645 240° Southwest 458 527 31,000  Level FlightAware Transoceanic
10:41AM 47.1734 -25.0263 240° Southwest 458 527 31,000  Level FlightAware Transoceanic
10:42AM 47.1088 -25.1877 239° Southwest 458 527 31,000  Level FlightAware Transoceanic
10:43AM 47.0440 -25.3487 239° Southwest 458 527 31,000  Level FlightAware Transoceanic
10:44AM 46.9790 -25.5094 239° Southwest 458 527 31,000  Level FlightAware Transoceanic
10:45AM 46.9137 -25.6696 239° Southwest 458 527 31,000  Level FlightAware Transoceanic
10:46AM 46.8483 -25.8295 239° Southwest 458 527 31,000  Level FlightAware Transoceanic
10:47AM 46.7826 -25.9889 239° Southwest 458 527 31,000  Level FlightAware Transoceanic
10:48AM 46.7166 -26.1480 239° Southwest 458 527 31,000  Level FlightAware Transoceanic
10:49AM 46.6505 -26.3067 239° Southwest 458 527 31,000  Level FlightAware Transoceanic
10:50AM 46.5841 -26.4650 239° Southwest 458 527 31,000  Level FlightAware Transoceanic
10:51AM 46.5176 -26.6229 238° Southwest 458 527 31,000  Level FlightAware Transoceanic
10:52AM 46.4508 -26.7804 238° Southwest 458 527 31,000  Level FlightAware Transoceanic
10:53AM 46.3838 -26.9375 238° Southwest 458 527 31,000  Level FlightAware Transoceanic
10:54AM 46.3166 -27.0942 238° Southwest 458 527 31,000  Level FlightAware Transoceanic
10:55AM 46.2491 -27.2506 238° Southwest 458 527 31,000  Level FlightAware Transoceanic
10:56AM 46.1815 -27.4066 238° Southwest 458 527 31,000  Level FlightAware Transoceanic
10:57AM 46.1136 -27.5622 238° Southwest 458 527 31,000  Level FlightAware Transoceanic
10:58AM 46.0456 -27.7174 238° Southwest 458 527 31,000  Level FlightAware Transoceanic
10:59AM 45.9773 -27.8722 238° Southwest 458 527 31,000  Level FlightAware Transoceanic
11:00AM 45.9088 -28.0267 237° Southwest 458 527 31,000  Level FlightAware Transoceanic
11:01AM 45.8401 -28.1807 237° Southwest 458 527 31,000  Level FlightAware Transoceanic
11:02AM 45.7712 -28.3344 237° Southwest 458 527 31,000  Level FlightAware Transoceanic
11:03AM 45.7021 -28.4877 237° Southwest 458 527 31,000  Level FlightAware Transoceanic
11:04AM 45.6328 -28.6406 237° Southwest 458 527 31,000  Level FlightAware Transoceanic
11:05AM 45.5633 -28.7932 237° Southwest 458 527 31,000  Level FlightAware Transoceanic
11:06AM 45.4936 -28.9453 237° Southwest 458 527 31,000  Level FlightAware Transoceanic
11:07AM 45.4237 -29.0971 237° Southwest 458 527 31,000  Level FlightAware Transoceanic
11:08AM 45.3536 -29.2485 237° Southwest 458 527 31,000  Level FlightAware Transoceanic
11:09AM 45.2832 -29.3996 236° Southwest 458 527 31,000  Level FlightAware Transoceanic
11:10AM 45.2127 -29.5502 236° Southwest 458 527 31,000  Level FlightAware Transoceanic
11:11AM 45.1420 -29.7005 236° Southwest 458 527 31,000  Level FlightAware Transoceanic
11:12AM 45.0711 -29.8505 236° Southwest 458 527 31,000  Level FlightAware Transoceanic
11:13AM 44.9789 -30.0442 236° Southwest  Level FlightAware Approximate
11:14AM 44.9754 -30.1008 251° West  Level FlightAware Approximate
11:15AM 44.9212 -30.3212 251° West  Level FlightAware Approximate
11:16AM 44.8667 -30.5412 251° West  Level FlightAware Approximate
11:17AM 44.8117 -30.7607 251° West  Level FlightAware Approximate
11:18AM 44.7563 -30.9798 250° West  Level FlightAware Approximate
11:19AM 44.7005 -31.1985 250° West  Level FlightAware Approximate
11:20AM 44.6442 -31.4168 250° West  Level FlightAware Approximate
11:21AM 44.5875 -31.6346 250° West  Level FlightAware Approximate
11:22AM 44.5305 -31.8520 250° West  Level FlightAware Approximate
11:23AM 44.4730 -32.0690 250° West  Level FlightAware Approximate
11:24AM 44.4151 -32.2856 250° West  Level FlightAware Approximate
11:25AM 44.3568 -32.5017 249° West  Level FlightAware Approximate
11:26AM 44.2981 -32.7174 249° West  Level FlightAware Approximate
11:27AM 44.2389 -32.9327 249° West  Level FlightAware Approximate
11:28AM 44.1794 -33.1475 249° West  Level FlightAware Approximate
11:29AM 44.1195 -33.3619 249° West  Level FlightAware Approximate
11:30AM 44.0592 -33.5759 249° West  Level FlightAware Approximate
11:31AM 43.9985 -33.7894 248° West  Level FlightAware Approximate
11:32AM 43.9374 -34.0025 248° West  Level FlightAware Approximate
11:33AM 43.8758 -34.2151 248° West  Level FlightAware Approximate
11:34AM 43.8139 -34.4273 248° West  Level FlightAware Approximate
11:35AM 43.7516 -34.6391 248° West  Level FlightAware Approximate
11:36AM 43.6889 -34.8504 248° West  Level FlightAware Approximate
11:37AM 43.6259 -35.0613 248° West  Level FlightAware Approximate
11:38AM 43.5624 -35.2718 247° West  Level FlightAware Approximate
11:39AM 43.4986 -35.4818 247° West  Level FlightAware Approximate
11:40AM 43.4343 -35.6913 247° West  Level FlightAware Approximate
11:41AM 43.3697 -35.9004 247° West  Level FlightAware Approximate
11:42AM 43.3047 -36.1091 247° West  Level FlightAware Approximate
11:43AM 43.2394 -36.3173 247° West  Level FlightAware Approximate
11:44AM 43.1736 -36.5251 247° West  Level FlightAware Approximate
11:45AM 43.1075 -36.7324 246° West  Level FlightAware Approximate
11:46AM 43.0410 -36.9393 246° West  Level FlightAware Approximate
11:47AM 42.9741 -37.1457 246° West  Level FlightAware Approximate
11:48AM 42.9069 -37.3517 246° West  Level FlightAware Approximate
11:49AM 42.8393 -37.5572 246° West  Level FlightAware Approximate
11:50AM 42.7713 -37.7622 246° West  Level FlightAware Approximate
11:51AM 42.7030 -37.9669 246° West  Level FlightAware Approximate
11:52AM 42.6343 -38.1710 245° Southwest  Level FlightAware Approximate
11:53AM 42.5652 -38.3748 245° Southwest  Level FlightAware Approximate
11:54AM 42.4958 -38.5780 245° Southwest  Level FlightAware Approximate
11:55AM 42.4260 -38.7808 245° Southwest  Level FlightAware Approximate
11:56AM 42.3559 -38.9832 245° Southwest  Level FlightAware Approximate
11:57AM 42.2860 -39.1855 245° Southwest  Level FlightAware Approximate
11:58AM 42.2159 -39.3874 245° Southwest  Level FlightAware Approximate
11:59AM 42.1454 -39.5889 245° Southwest  Level FlightAware Approximate
12:00PM 42.0746 -39.7899 245° Southwest  Level FlightAware Approximate
12:01PM 42.0034 -39.9905 245° Southwest  Level FlightAware Approximate
12:02PM 41.9504 -40.2007 252° West  Level FlightAware Approximate
12:03PM 41.8979 -40.4111 252° West  Level FlightAware Approximate
12:04PM 41.8450 -40.6211 251° West  Level FlightAware Approximate
12:05PM 41.7918 -40.8308 251° West  Level FlightAware Approximate
12:06PM 41.7382 -41.0402 251° West  Level FlightAware Approximate
12:07PM 41.6842 -41.2492 251° West  Level FlightAware Approximate
12:08PM 41.6298 -41.4578 251° West  Level FlightAware Approximate
12:09PM 41.5750 -41.6661 251° West  Level FlightAware Approximate
12:10PM 41.5199 -41.8740 251° West  Level FlightAware Approximate
12:11PM 41.4644 -42.0816 250° West  Level FlightAware Approximate
12:12PM 41.4085 -42.2888 250° West  Level FlightAware Approximate
12:13PM 41.3523 -42.4957 250° West  Level FlightAware Approximate
12:14PM 41.2956 -42.7022 250° West  Level FlightAware Approximate
12:15PM 41.2387 -42.9083 250° West  Level FlightAware Approximate
12:16PM 41.1813 -43.1141 250° West  Level FlightAware Approximate
12:17PM 41.1236 -43.3195 250° West  Level FlightAware Approximate
12:17PM 42.0000 -40.0000 252° West 466 536 31,000  Level New York Oceanic (ODAPS)
12:18PM 41.0655 -43.5246 249° West  Level FlightAware Approximate
12:19PM 41.0070 -43.7293 249° West  Level FlightAware Approximate
12:20PM 40.9482 -43.9336 249° West  Level FlightAware Approximate
12:21PM 40.8891 -44.1376 249° West  Level FlightAware Approximate
12:22PM 40.8301 -44.3415 249° West  Level FlightAware Approximate
12:23PM 41.7564 -40.9750 251° West 466 536 31,000  Level FlightAware Transoceanic
12:24PM 41.7150 -41.1368 251° West 466 536 31,000  Level FlightAware Transoceanic
12:24PM 41.7500 -41.0333 251° West 471 542 31,000  Level New York Oceanic (ODAPS)
12:25PM 41.6733 -41.2984 251° West 466 536 31,000  Level FlightAware Transoceanic
12:26PM 41.6315 -41.4597 251° West 466 536 31,000  Level FlightAware Transoceanic
12:27PM 41.5894 -41.6209 251° West 466 536 31,000  Level FlightAware Transoceanic
12:28PM 41.5471 -41.7818 251° West 466 536 31,000  Level FlightAware Transoceanic
12:29PM 41.5046 -41.9426 250° West 466 536 31,000  Level FlightAware Transoceanic
12:30PM 41.4893 -42.0287 250° West 471 542 31,000  Level FlightAware Transoceanic
12:31PM 41.4450 -42.1939 250° West 471 542 31,000  Level FlightAware Transoceanic
12:32PM 41.4005 -42.3587 250° West 471 542 31,000  Level FlightAware Transoceanic
12:33PM 41.3557 -42.5234 250° West 471 542 31,000  Level FlightAware Transoceanic
12:34PM 41.3107 -42.6878 250° West 471 542 31,000  Level FlightAware Transoceanic
12:35PM 41.2655 -42.8520 250° West 471 542 31,000  Level FlightAware Transoceanic
12:36PM 41.2201 -43.0160 250° West 471 542 31,000  Level FlightAware Transoceanic
12:37PM 41.1744 -43.1798 250° West 471 542 31,000 1,560 Level FlightAware Transoceanic
12:37PM 41.2000 -43.0833 250° West 457 526 34,000  Climbing New York Oceanic (ODAPS)
12:38PM 41.1284 -43.3433 249° West 471 542 31,000 -2,760 Descending FlightAware Transoceanic
12:39PM 41.0823 -43.5066 249° West 471 542 31,000  Level FlightAware Transoceanic
12:40PM 41.0359 -43.6697 249° West 471 542 31,000  Level FlightAware Transoceanic
12:41PM 40.9893 -43.8325 249° West 471 542 31,000  Level FlightAware Transoceanic
12:42PM 40.9425 -43.9951 249° West 471 542 31,000  Level FlightAware Transoceanic
12:43PM 40.8954 -44.1575 249° West 471 542 31,000 1,500 Level FlightAware Transoceanic
12:44PM 40.9309 -44.0313 249° West 457 526 34,000 1,500 Climbing FlightAware Transoceanic
12:45PM 40.8853 -44.1885 249° West 457 526 34,000  Level FlightAware Transoceanic
12:46PM 40.8394 -44.3455 249° West 457 526 34,000  Level FlightAware Transoceanic
12:47PM 40.7934 -44.5023 249° West 457 526 34,000  Level FlightAware Transoceanic
12:48PM 40.7472 -44.6589 249° West 457 526 34,000  Level FlightAware Transoceanic
12:49PM 40.7007 -44.8153 249° West 457 526 34,000  Level FlightAware Transoceanic
12:50PM 40.6540 -44.9714 248° West 457 526 34,000  Level FlightAware Transoceanic
12:51PM 40.6072 -45.1273 248° West 457 526 34,000  Level FlightAware Transoceanic
12:51PM 40.6000 -45.1167 248° West 469 540 34,000  Level New York Oceanic (ODAPS)
12:52PM 40.5601 -45.2830 248° West 457 526 34,000  Level FlightAware Transoceanic
12:53PM 40.5128 -45.4385 248° West 457 526 34,000  Level FlightAware Transoceanic
12:54PM 40.4653 -45.5938 248° West 457 526 34,000  Level FlightAware Transoceanic
12:55PM 40.4175 -45.7488 248° West 457 526 34,000  Level FlightAware Transoceanic
12:56PM 40.3696 -45.9037 248° West 457 526 34,000  Level FlightAware Transoceanic
12:57PM 40.3215 -46.0583 248° West 457 526 34,000  Level FlightAware Transoceanic
12:58PM 40.3065 -46.0795 248° West 469 540 34,000  Level FlightAware Transoceanic
12:59PM 40.2568 -46.2392 248° West 469 540 34,000  Level FlightAware Transoceanic
01:00PM 40.2069 -46.3986 248° West 469 540 34,000  Level FlightAware Transoceanic
01:01PM 40.1567 -46.5578 248° West 469 540 34,000  Level FlightAware Transoceanic
01:02PM 40.1064 -46.7167 247° West 469 540 34,000  Level FlightAware Transoceanic
01:03PM 40.0558 -46.8755 247° West 469 540 34,000  Level FlightAware Transoceanic
01:04PM 40.0050 -47.0339 247° West 469 540 34,000  Level FlightAware Transoceanic
01:05PM 39.9540 -47.1922 247° West 469 540 34,000  Level FlightAware Transoceanic
01:05PM 39.9333 -47.2833 247° West 493 567 34,000  Level New York Oceanic (ODAPS)
01:06PM 39.9028 -47.3502 247° West 469 540 34,000  Level FlightAware Transoceanic
01:07PM 39.8514 -47.5080 247° West 469 540 34,000  Level FlightAware Transoceanic
01:08PM 39.7997 -47.6655 247° West 469 540 34,000  Level FlightAware Transoceanic
01:09PM 39.7479 -47.8228 247° West 469 540 34,000  Level FlightAware Transoceanic
01:10PM 39.6958 -47.9799 247° West 469 540 34,000  Level FlightAware Transoceanic
01:11PM 39.6436 -48.1367 247° West 469 540 34,000  Level FlightAware Transoceanic
01:12PM 39.5567 -48.4108 246° West 493 567 34,000  Level FlightAware Transoceanic
01:13PM 39.5020 -48.5708 246° West 493 567 34,000  Level FlightAware Transoceanic
01:14PM 39.4471 -48.7307 246° West 493 567 34,000  Level FlightAware Transoceanic
01:15PM 39.3920 -48.8902 246° West 493 567 34,000  Level FlightAware Transoceanic
01:16PM 39.3366 -49.0495 246° West 493 567 34,000  Level FlightAware Transoceanic
01:17PM 39.2810 -49.2085 246° West 493 567 34,000  Level FlightAware Transoceanic
01:18PM 39.2253 -49.3674 246° West 493 567 34,000  Level FlightAware Transoceanic
01:19PM 39.1693 -49.5259 245° Southwest 493 567 34,000  Level FlightAware Transoceanic
01:19PM 39.1500 -49.5833 245° Southwest 496 571 34,000  Level New York Oceanic (ODAPS)
01:20PM 39.1131 -49.6842 245° Southwest 493 567 34,000  Level FlightAware Transoceanic
01:21PM 39.0566 -49.8422 245° Southwest 493 567 34,000  Level FlightAware Transoceanic
01:22PM 39.0000 -50.0000 234° Southwest 493 567 34,000  Level FlightAware Transoceanic
01:22PM 39.0000 -50.0000 234° Southwest 501 577 34,000  Level New York Oceanic (ODAPS)
01:23PM 38.9173 -50.1485 234° Southwest 493 567 34,000  Level FlightAware Transoceanic
01:24PM 38.8344 -50.2967 234° Southwest 493 567 34,000  Level FlightAware Transoceanic
01:25PM 38.7513 -50.4446 234° Southwest 496 571 34,000  Level FlightAware Transoceanic
01:26PM 38.6681 -50.5921 234° Southwest 496 571 34,000  Level FlightAware Transoceanic
01:27PM 38.5846 -50.7393 234° Southwest 496 571 34,000  Level FlightAware Transoceanic
01:28PM 38.5149 -50.8616 234° Southwest 501 577 34,000  Level FlightAware Transoceanic
01:29PM 38.4335 -51.0041 234° Southwest 501 577 34,000  Level FlightAware Transoceanic
01:30PM 38.3519 -51.1462 234° Southwest 501 577 34,000  Level FlightAware Transoceanic
01:31PM 38.2701 -51.2881 234° Southwest 501 577 34,000  Level FlightAware Transoceanic
01:32PM 38.1881 -51.4296 234° Southwest 501 577 34,000  Level FlightAware Transoceanic
01:33PM 38.1060 -51.5708 233° Southwest 501 577 34,000  Level FlightAware Transoceanic
01:33PM 38.0500 -51.6667 233° Southwest 506 582 34,000  Level New York Oceanic (ODAPS)
01:34PM 38.0237 -51.7116 233° Southwest 501 577 34,000  Level FlightAware Transoceanic
01:35PM 37.9412 -51.8522 233° Southwest 501 577 34,000  Level FlightAware Transoceanic
01:36PM 37.8586 -51.9924 233° Southwest 501 577 34,000  Level FlightAware Transoceanic
01:37PM 37.7757 -52.1324 233° Southwest 501 577 34,000  Level FlightAware Transoceanic
01:38PM 37.6928 -52.2720 233° Southwest 501 577 34,000  Level FlightAware Transoceanic
01:39PM 37.5463 -52.5170 233° Southwest 506 582 34,000  Level FlightAware Transoceanic
01:40PM 37.4618 -52.6576 233° Southwest 506 582 34,000  Level FlightAware Transoceanic
01:41PM 37.3771 -52.7979 233° Southwest 506 582 34,000  Level FlightAware Transoceanic
01:42PM 37.2922 -52.9378 233° Southwest 506 582 34,000  Level FlightAware Transoceanic
01:43PM 37.2072 -53.0775 233° Southwest 506 582 34,000  Level FlightAware Transoceanic
01:44PM 37.1220 -53.2168 232° Southwest 506 582 34,000  Level FlightAware Transoceanic
01:45PM 37.0367 -53.3558 232° Southwest 506 582 34,000  Level FlightAware Transoceanic
01:46PM 36.9511 -53.4945 232° Southwest 506 582 34,000  Level FlightAware Transoceanic
01:47PM 36.8655 -53.6329 232° Southwest 506 582 34,000  Level FlightAware Transoceanic
01:47PM 36.8667 -53.6333 232° Southwest 503 579 34,000  Level New York Oceanic (ODAPS)
01:48PM 36.7796 -53.7710 232° Southwest 506 582 34,000  Level FlightAware Transoceanic
01:49PM 36.6936 -53.9088 232° Southwest 506 582 34,000  Level FlightAware Transoceanic
01:50PM 36.6075 -54.0463 232° Southwest 506 582 34,000  Level FlightAware Transoceanic
01:51PM 36.5211 -54.1834 232° Southwest 506 582 34,000  Level FlightAware Transoceanic
01:52PM 36.4347 -54.3203 232° Southwest 506 582 34,000  Level FlightAware Transoceanic
01:53PM 36.3485 -54.4570 232° Southwest 503 579 34,000  Level FlightAware Transoceanic
01:54PM 36.2616 -54.5932 232° Southwest 503 579 34,000  Level FlightAware Transoceanic
01:55PM 36.1746 -54.7291 232° Southwest 503 579 34,000  Level FlightAware Transoceanic
01:56PM 36.0874 -54.8647 231° Southwest 503 579 34,000  Level FlightAware Transoceanic
01:57PM 36.0000 -55.0000 245° Southwest 503 579 34,000  Level FlightAware Transoceanic
01:57PM 36.0000 -55.0000 245° Southwest 481 554 34,000  Level New York Oceanic (ODAPS)
01:58PM 35.9442 -55.1506 245° Southwest 503 579 34,000  Level FlightAware Transoceanic
01:59PM 35.8881 -55.3009 245° Southwest 503 579 34,000  Level FlightAware Transoceanic
02:00PM 35.8319 -55.4510 245° Southwest 503 579 34,000  Level FlightAware Transoceanic
02:01PM 35.7755 -55.6010 245° Southwest 503 579 34,000  Level FlightAware Transoceanic
02:01PM 35.7833 -55.5833 245° Southwest 478 550 34,000  Level New York Oceanic (ODAPS)
02:02PM 35.7189 -55.7507 245° Southwest 503 579 34,000  Level FlightAware Transoceanic
02:03PM 35.6622 -55.9002 245° Southwest 481 554 34,000  Level FlightAware Transoceanic
02:04PM 35.6052 -56.0494 245° Southwest 481 554 34,000  Level FlightAware Transoceanic
02:05PM 35.5481 -56.1985 245° Southwest 481 554 34,000  Level FlightAware Transoceanic
02:06PM 35.4907 -56.3474 245° Southwest 481 554 34,000  Level FlightAware Transoceanic
02:07PM 35.4396 -56.4820 245° Southwest 478 550 34,000  Level FlightAware Transoceanic
02:08PM 35.3816 -56.6311 244° Southwest 478 550 34,000  Level FlightAware Transoceanic
02:09PM 35.3235 -56.7799 244° Southwest 478 550 34,000  Level FlightAware Transoceanic
02:10PM 35.2652 -56.9285 244° Southwest 478 550 34,000  Level FlightAware Transoceanic
02:11PM 35.2067 -57.0769 244° Southwest 478 550 34,000  Level FlightAware Transoceanic
02:12PM 35.1481 -57.2251 244° Southwest 478 550 34,000  Level FlightAware Transoceanic
02:13PM 35.0892 -57.3730 244° Southwest 478 550 34,000  Level FlightAware Transoceanic
02:14PM 35.0302 -57.5208 244° Southwest 478 550 34,000  Level FlightAware Transoceanic
02:14PM 35.0000 -57.6167 244° Southwest 475 547 34,000  Level New York Oceanic (ODAPS)
02:15PM 34.9710 -57.6683 244° Southwest 478 550 34,000  Level FlightAware Transoceanic
02:16PM 34.9116 -57.8157 244° Southwest 478 550 34,000  Level FlightAware Transoceanic
02:17PM 34.8521 -57.9628 244° Southwest 478 550 34,000  Level FlightAware Transoceanic
02:18PM 34.7924 -58.1097 244° Southwest 478 550 34,000  Level FlightAware Transoceanic
02:19PM 34.7324 -58.2563 244° Southwest 478 550 34,000  Level FlightAware Transoceanic
02:20PM 34.6724 -58.4028 243° Southwest 478 550 34,000  Level FlightAware Transoceanic
02:21PM 34.6524 -58.4644 243° Southwest 475 547 34,000  Level FlightAware Transoceanic
02:22PM 34.5938 -58.6050 243° Southwest 475 547 34,000  Level FlightAware Transoceanic
02:23PM 34.5352 -58.7454 243° Southwest 475 547 34,000  Level FlightAware Transoceanic
02:24PM 34.4763 -58.8856 243° Southwest 475 547 34,000  Level FlightAware Transoceanic
02:25PM 34.4174 -59.0256 243° Southwest 475 547 34,000  Level FlightAware Transoceanic
02:26PM 34.3582 -59.1654 243° Southwest 475 547 34,000  Level FlightAware Transoceanic
02:27PM 34.2989 -59.3050 243° Southwest 475 547 34,000  Level FlightAware Transoceanic
02:28PM 34.2394 -59.4444 243° Southwest 475 547 34,000  Level FlightAware Transoceanic
02:28PM 34.1667 -59.6000 243° Southwest 473 544 34,000  Level New York Oceanic (ODAPS)
02:29PM 34.1798 -59.5836 243° Southwest 475 547 34,000  Level FlightAware Transoceanic
02:30PM 34.1200 -59.7226 243° Southwest 475 547 34,000  Level FlightAware Transoceanic
02:31PM 34.0601 -59.8614 242° Southwest 475 547 34,000  Level FlightAware Transoceanic
02:31PM 34.0000 -60.0000 252° West 476 548 34,000  Level New York Oceanic (ODAPS)
02:32PM 34.0000 -60.0000 252° West 475 547 34,000  Level FlightAware Transoceanic
02:33PM 33.9591 -60.1490 252° West 475 547 34,000  Level FlightAware Transoceanic
02:34PM 33.9181 -60.2978 252° West 475 547 34,000  Level FlightAware Transoceanic
02:35PM 33.8769 -60.4465 251° West 473 544 34,000  Level FlightAware Transoceanic
02:36PM 33.8355 -60.5951 251° West 473 544 34,000  Level FlightAware Transoceanic
02:37PM 33.7939 -60.7435 251° West 473 544 34,000  Level FlightAware Transoceanic
02:38PM 33.7242 -60.9905 251° West 476 548 34,000  Level FlightAware Transoceanic
02:39PM 33.6775 -61.1549 251° West 476 548 34,000  Level FlightAware Transoceanic
02:39PM 33.6833 -61.1500 242° Southwest 473 544 34,000  Level New York Center
02:40PM 33.6305 -61.3192 251° West 476 548 34,000  Level FlightAware Transoceanic
02:40PM 33.6433 -61.2992 252° West 485 558 34,000  Level New York Center
02:41PM 33.5833 -61.4833 242° Southwest 476 548 34,000  Level FlightAware Transoceanic
02:41PM 33.6039 -61.4333 251° West 480 552 34,000  Level New York Center
02:42PM 33.5222 -61.6235 242° Southwest 476 548 34,000  Level FlightAware Transoceanic
02:42PM 33.5456 -61.5942 247° West 480 552 34,000  Level New York Center
02:43PM 33.4609 -61.7635 242° Southwest 476 548 34,000  Level FlightAware Transoceanic
02:43PM 33.4997 -61.7311 248° West 491 565 34,000  Level New York Center
02:44PM 33.4344 -61.8850 243° Southwest 491 565 34,000  Level New York Center
02:45PM 33.3697 -62.0236 241° Southwest 491 565 34,000  Level New York Center
02:46PM 33.3147 -62.1561 244° Southwest 491 565 34,000  Level New York Center
02:47PM 33.2467 -62.3094 242° Southwest 491 565 34,000  Level New York Center
02:48PM 33.1836 -62.4522 242° Southwest 491 565 34,000  Level New York Center
02:49PM 33.1258 -62.5769 241° Southwest 486 559 34,000  Level New York Center
02:50PM 33.0589 -62.7269 242° Southwest 486 559 34,000  Level New York Center
02:51PM 32.9986 -62.8539 241° Southwest 486 559 34,000  Level New York Center
02:52PM 32.9272 -63.0039 240° Southwest 486 559 34,000  Level New York Center
02:53PM 32.8678 -63.1478 244° Southwest 486 559 34,000  Level New York Center
02:54PM 32.8108 -63.2689 241° Southwest 486 559 34,000  Level New York Center
02:55PM 32.7372 -63.4208 240° Southwest 491 565 34,000  Level New York Center
02:56PM 32.6747 -63.5594 242° Southwest 486 559 34,000  Level New York Center
02:57PM 32.6178 -63.6847 242° Southwest 491 565 34,000  Level New York Center
02:58PM 32.5475 -63.8358 241° Southwest 491 565 34,000  Level New York Center
02:59PM 32.4858 -63.9614 240° Southwest 491 565 34,000  Level New York Center
03:00PM 32.4156 -64.1144 241° Southwest 486 559 34,000  Level New York Center
03:01PM 32.3519 -64.2469 240° Southwest 486 559 34,000  Level New York Center
03:02PM 32.2942 -64.3714 241° Southwest 486 559 34,000  Level New York Center
03:03PM 32.2189 -64.5242 240° Southwest 486 559 34,000  Level New York Center
03:04PM 32.1533 -64.6636 241° Southwest 486 559 34,000  Level New York Center
03:05PM 32.0950 -64.7875 241° Southwest 486 559 34,000  Level New York Center
03:06PM 32.0233 -64.9369 241° Southwest 491 565 34,000  Level New York Center
03:07PM 31.9592 -65.0756 241° Southwest 483 556 34,000  Level New York Center
03:08PM 31.9003 -65.1992 241° Southwest 483 556 34,000  Level New York Center
03:09PM 31.8261 -65.3478 240° Southwest 483 556 34,000  Level New York Center
03:10PM 31.7611 -65.4786 240° Southwest 483 556 34,000  Level New York Center
03:11PM 31.6922 -65.6192 240° Southwest 483 556 34,000  Level New York Center
03:12PM 31.6292 -65.7519 241° Southwest 483 556 34,000  Level New York Center
03:13PM 31.5675 -65.8722 239° Southwest 483 556 34,000  Level New York Center
03:14PM 31.4922 -66.0197 239° Southwest 483 556 34,000  Level New York Center
03:15PM 31.4311 -66.1542 242° Southwest 483 556 34,000  Level New York Center
03:16PM 31.3711 -66.2786 241° Southwest 483 556 34,000  Level New York Center
03:17PM 31.2975 -66.4256 240° Southwest 477 549 34,000  Level New York Center
03:18PM 31.2350 -66.5450 239° Southwest 482 555 34,000  Level New York Center
03:19PM 31.1611 -66.6914 239° Southwest 482 555 34,000  Level New York Center
03:20PM 31.0906 -66.8203 237° Southwest 482 555 34,000  Level New York Center
03:21PM 31.0319 -66.9414 241° Southwest 482 555 34,000  Level New York Center
03:22PM 30.9575 -67.0869 239° Southwest 482 555 34,000  Level New York Center
03:23PM 30.8886 -67.2203 239° Southwest 488 562 34,000  Level New York Center
03:24PM 30.8253 -67.3361 238° Southwest 477 549 34,000 60 Level New York Center
03:26PM 30.7049 -67.5585 235° Southwest  Level FlightAware Approximate
03:33PM 30.2538 -68.4196 238° Southwest  Level FlightAware Approximate
03:34PM 30.1882 -68.5417 238° Southwest  Level FlightAware Approximate
03:35PM 30.1225 -68.6637 238° Southwest  Level FlightAware Approximate
03:36PM 30.0567 -68.7856 238° Southwest  Level FlightAware Approximate
03:37PM 29.9908 -68.9072 238° Southwest  Level FlightAware Approximate
03:38PM 29.9247 -69.0287 238° Southwest  Level FlightAware Approximate
03:39PM 29.8586 -69.1500 238° Southwest  Level FlightAware Approximate
03:39PM 29.8000 -69.3333 238° Southwest 479 551 35,000  Level New York Oceanic (ODAPS)
03:40PM 29.7923 -69.2712 238° Southwest  Level FlightAware Approximate
03:41PM 29.7430 -69.4025 247° West  Level FlightAware Approximate
03:42PM 29.6898 -69.5351 237° Southwest  Level FlightAware Approximate
03:43PM 29.6227 -69.6554 237° Southwest  Level FlightAware Approximate
03:44PM 29.5556 -69.7755 237° Southwest  Level FlightAware Approximate
03:45PM 29.3792 -70.0958 237° Southwest 479 551 35,000  Level FlightAware Transoceanic
03:46PM 29.3087 -70.2222 237° Southwest 479 551 35,000  Level FlightAware Transoceanic
03:47PM 29.2380 -70.3485 237° Southwest 479 551 35,000  Level FlightAware Transoceanic
03:48PM 29.1672 -70.4746 237° Southwest 479 551 35,000  Level FlightAware Transoceanic
03:49PM 29.0963 -70.6005 237° Southwest 479 551 35,000  Level FlightAware Transoceanic
03:50PM 29.0253 -70.7263 237° Southwest 479 551 35,000  Level FlightAware Transoceanic
03:51PM 28.9541 -70.8519 237° Southwest 479 551 35,000  Level FlightAware Transoceanic
03:52PM 28.8829 -70.9773 237° Southwest 479 551 35,000  Level FlightAware Transoceanic
03:52PM 28.8833 -71.0000 237° Southwest 472 543 35,000  Level New York Oceanic (ODAPS)
03:53PM 28.8115 -71.1026 237° Southwest 479 551 35,000  Level FlightAware Transoceanic
03:53PM 28.8167 -71.1167 237° Southwest 462 532 35,000  Level New York Oceanic (ODAPS)
03:54PM 28.7400 -71.2276 237° Southwest 479 551 35,000  Level FlightAware Transoceanic
03:55PM 28.6684 -71.3525 237° Southwest 479 551 35,000  Level FlightAware Transoceanic
03:56PM 28.5967 -71.4772 237° Southwest 479 551 35,000  Level FlightAware Transoceanic
03:57PM 28.5248 -71.6018 237° Southwest 479 551 35,000  Level FlightAware Transoceanic
03:58PM 28.4532 -71.7438 236° Southwest 472 543 35,000  Level FlightAware Transoceanic
03:59PM 28.3848 -71.8613 236° Southwest 462 532 35,000  Level FlightAware Transoceanic
03:59PM 28.3167 -71.9167 237° Southwest 468 539 35,000  Level New York Oceanic (ODAPS)
04:00PM 28.3124 -71.9848 236° Southwest 462 532 35,000  Level FlightAware Transoceanic
04:01PM 28.2399 -72.1081 236° Southwest 462 532 35,000  Level FlightAware Transoceanic
04:02PM 28.1673 -72.2313 236° Southwest 462 532 35,000  Level FlightAware Transoceanic
04:03PM 28.0946 -72.3543 236° Southwest 462 532 35,000  Level FlightAware Transoceanic
04:04PM 28.0218 -72.4771 236° Southwest 462 532 35,000  Level FlightAware Transoceanic
04:05PM 27.9488 -72.5998 236° Southwest 462 532 35,000  Level FlightAware Transoceanic
04:06PM 27.8790 -72.6759 237° Southwest 468 539 35,000  Level FlightAware Transoceanic
04:06PM 27.8000 -72.8000 237° Southwest 468 539 35,000  Level New York Oceanic (ODAPS)
04:07PM 27.8056 -72.8018 237° Southwest 468 539 35,000  Level FlightAware Transoceanic
04:08PM 27.7322 -72.9276 237° Southwest 468 539 35,000  Level FlightAware Transoceanic
04:09PM 27.6586 -73.0532 236° Southwest 468 539 35,000  Level FlightAware Transoceanic
04:10PM 27.5849 -73.1786 236° Southwest 468 539 35,000  Level FlightAware Transoceanic
04:11PM 27.5111 -73.3039 236° Southwest 468 539 35,000  Level FlightAware Transoceanic
04:12PM 27.4372 -73.4290 236° Southwest 468 539 35,000  Level FlightAware Transoceanic
04:13PM 27.3603 -73.5530 236° Southwest 468 539 35,000  Level FlightAware Transoceanic
04:14PM 27.2867 -73.6779 236° Southwest 468 539 35,000  Level FlightAware Transoceanic
04:15PM 27.2129 -73.8027 236° Southwest 468 539 35,000  Level FlightAware Transoceanic
04:16PM 27.1390 -73.9272 236° Southwest 468 539 35,000  Level FlightAware Transoceanic
04:17PM 27.0650 -74.0517 236° Southwest 468 539 35,000  Level FlightAware Transoceanic
04:17PM 27.0375 -74.0808 237° Southwest 459 528 35,000  Level Miami Center
04:18PM 26.9909 -74.1759 236° Southwest 468 539 35,000  Level FlightAware Transoceanic
04:18PM 26.9708 -74.1989 238° Southwest 459 528 35,000  Level Miami Center
04:19PM 26.9167 -74.3000 237° Southwest 468 539 35,000  Level FlightAware Transoceanic
04:19PM 26.8914 -74.3172 233° Southwest 467 537 35,000  Level Miami Center
04:20PM 26.8487 -74.4156 237° Southwest 468 539 35,000  Level FlightAware Transoceanic
04:20PM 26.8244 -74.4397 239° Southwest 472 543 35,000  Level Miami Center
04:21PM 26.7807 -74.5311 237° Southwest 468 539 35,000  Level FlightAware Transoceanic
04:21PM 26.7578 -74.5667 240° Southwest 472 543 35,000  Level Miami Center
04:22PM 26.7126 -74.6464 237° Southwest 468 539 35,000  Level FlightAware Transoceanic
04:22PM 26.6950 -74.6958 241° Southwest 472 543 35,000  Level Miami Center
04:23PM 26.6256 -74.8156 237° Southwest 472 543 35,000  Level Miami Center
04:24PM 26.5689 -74.9467 244° Southwest 477 549 35,000  Level Miami Center
04:25PM 26.4975 -75.0686 237° Southwest 472 543 35,000  Level Miami Center
04:26PM 26.4278 -75.1925 238° Southwest 472 543 35,000 -300 Level Miami Center
04:27PM 26.3644 -75.3186 241° Southwest 472 543 34,500 -540 Descending Miami Center
04:28PM 26.3031 -75.4494 242° Southwest 472 543 34,000 -300 Descending Miami Center
04:29PM 26.2289 -75.5683 235° Southwest 472 543 34,000  Level Miami Center
04:30PM 26.1611 -75.6964 239° Southwest 479 551 34,000  Level Miami Center
04:31PM 26.0953 -75.8219 240° Southwest 479 551 34,000  Level Miami Center
04:32PM 26.0272 -75.9475 239° Southwest 479 551 34,000  Level Miami Center
04:33PM 25.9631 -76.0753 241° Southwest 479 551 34,000  Level Miami Center
04:34PM 25.8928 -76.1981 238° Southwest 479 551 34,000  Level Miami Center
04:35PM 25.8264 -76.3253 240° Southwest 479 551 34,000  Level Miami Center
04:36PM 25.7600 -76.4503 239° Southwest 479 551 34,000  Level Miami Center
04:37PM 25.6892 -76.5728 237° Southwest 479 551 34,000  Level Miami Center
04:38PM 25.6225 -76.6997 240° Southwest 479 551 34,000  Level Miami Center
04:39PM 25.5556 -76.8219 239° Southwest 479 551 34,000  Level Miami Center
04:40PM 25.4867 -76.9461 238° Southwest 479 551 34,000  Level Miami Center
04:41PM 25.4197 -77.0681 239° Southwest 479 551 34,000  Level Miami Center
04:42PM 25.3525 -77.1922 239° Southwest 479 551 34,000  Level Miami Center
04:43PM 25.2853 -77.3161 239° Southwest 474 545 34,000  Level Miami Center
04:44PM 25.2203 -77.4378 239° Southwest 474 545 34,000  Level Miami Center
04:45PM 25.1444 -77.5797 239° Southwest 474 545 34,000  Level Miami Center
04:46PM 25.0728 -77.7008 237° Southwest 480 552 34,000  Level Miami Center
04:47PM 25.0031 -77.8219 238° Southwest 480 552 34,000  Level Miami Center
04:48PM 24.9353 -77.9450 239° Southwest 480 552 34,000  Level Miami Center
04:49PM 24.8675 -78.0658 238° Southwest 480 552 34,000  Level Miami Center
04:50PM 24.7994 -78.1867 238° Southwest 480 552 34,000  Level Miami Center
04:51PM 24.7294 -78.3072 237° Southwest 474 545 34,000  Level Miami Center
04:52PM 24.6633 -78.4253 238° Southwest 474 545 34,000  Level Miami Center
04:53PM 24.5953 -78.5456 238° Southwest 474 545 34,000  Level Miami Center
04:54PM 24.5228 -78.6656 236° Southwest 474 545 34,000  Level Miami Center
04:55PM 24.4586 -78.7856 240° Southwest 474 545 34,000  Level Miami Center
04:56PM 24.3922 -78.9056 239° Southwest 474 545 34,000  Level Miami Center
04:57PM 24.3217 -79.0208 236° Southwest 474 545 34,000  Level Miami Center
04:58PM 24.2508 -79.1403 237° Southwest 474 545 34,000  Level Miami Center
04:59PM 24.1864 -79.2575 239° Southwest 468 539 34,000  Level Miami Center
05:00PM 24.1219 -79.3700 238° Southwest 456 525 34,000  Level Miami Center
05:01PM 24.0553 -79.4847 238° Southwest 449 517 34,000  Level Miami Center
05:02PM 24.0069 -79.6111 247° West 449 517 34,000  Level Miami Center
05:04PM 23.8866 -79.7915 241° Southwest  Level FlightAware Approximate
05:11PM 23.4530 -80.6159 243° Southwest  Level FlightAware Approximate
05:12PM 23.3970 -80.7370 243° Southwest  Level FlightAware Approximate
05:13PM 23.3347 -80.8543 239° Southwest  Level FlightAware Approximate
05:14PM 23.2703 -80.9702 239° Southwest  Level FlightAware Approximate
05:15PM 23.2064 -81.0864 241° Southwest  Level FlightAware Approximate
05:16PM 23.1451 -81.2042 241° Southwest  Level FlightAware Approximate
05:17PM 23.0837 -81.3219 240° Southwest  Level FlightAware Approximate
05:18PM 23.0222 -81.4394 240° Southwest  Level FlightAware Approximate
05:19PM 23.0116 -81.5728 264° West  Level FlightAware Approximate
05:20PM 23.0000 -81.7073 270° West  Level FlightAware Approximate
05:21PM 23.0000 -81.8425 270° West  Level FlightAware Approximate
05:22PM 22.9960 -81.9775 264° West  Level FlightAware Approximate
05:23PM 22.9838 -82.1120 264° West  Level FlightAware Approximate
05:24PM 22.9833 -82.2472 270° West  Level FlightAware Approximate
05:25PM 22.9698 -82.3810 260° West  Level FlightAware Approximate
05:26PM 22.9667 -82.4000 260° West  Level FlightAware Approximate
05:27PM 22.9891 -82.4091 260° West  Level Estimated
05:28PM 22.9891 -82.4091 260° West  Level Estimated
05:29PM 22.9891 -82.4091 260° West  Level Estimated
05:30PM 22.9891 -82.4091 260° West  Level Estimated
05:31PM 22.9891 -82.4091 260° West  Level Estimated
05:32PM 22.9891 -82.4091 260° West  Level Estimated
05:33PM 22.9891 -82.4091 260° West  Level Estimated
05:34PM 22.9891 -82.4091 260° West  Level Estimated
05:35PM 22.9891 -82.4091 260° West  Level Estimated
05:36PM 22.9891 -82.4091 260° West  Level Estimated
05:37PM 22.9891 -82.4091 260° West  Level Estimated
05:38PM 22.9891 -82.4091 260° West  Level Estimated
05:39PM 22.9891 -82.4091 260° West  Level Estimated
05:40PM 22.9891 -82.4091 260° West  Level Estimated
05:41PM 22.9891 -82.4091 260° West  Level Estimated
05:42PM 22.9891 -82.4091 260° West  Level Estimated
05:43PM 22.9891 -82.4091 260° West  Level Estimated
05:44PM 22.9891 -82.4091 260° West  Level Estimated
05:45PM 22.9891 -82.4091 260° West  Level Estimated
05:46PM 22.9891 -82.4091 260° West  Level Estimated
05:47PM 22.9891 -82.4091 260° West  Level Estimated
05:48PM 22.9891 -82.4091 260° West  Level Estimated